sensor_id;sensor_type;location;lat;lon;timestamp;P1;durP1;ratioP1;P2;durP2;ratioP2
71104;SDS011;58760;48.716;8.962;2023-02-07T00:00:08;10.65;;;5.70;;
71104;SDS011;58760;48.716;8.962;2023-02-07T00:02:36;9.93;;;5.38;;
71104;SDS011;58760;48.716;8.962;2023-02-07T00:05:01;10.40;;;5.22;;
71104;SDS011;58760;48.716;8.962;2023-02-07T00:07:27;11.93;;;6.03;;
71104;SDS011;58760;48.716;8.962;2023-02-07T00:09:52;11.05;;;5.43;;
71104;SDS011;58760;48.716;8.962;2023-02-07T00:12:18;11.18;;;5.53;;
71104;SDS011;58760;48.716;8.962;2023-02-07T00:14:44;10.43;;;5.75;;
71104;SDS011;58760;48.716;8.962;2023-02-07T00:17:09;12.25;;;5.85;;
71104;SDS011;58760;48.716;8.962;2023-02-07T00:19:35;11.10;;;5.70;;
71104;SDS011;58760;48.716;8.962;2023-02-07T00:22:00;12.93;;;6.45;;
71104;SDS011;58760;48.716;8.962;2023-02-07T00:24:25;13.85;;;6.72;;
71104;SDS011;58760;48.716;8.962;2023-02-07T00:26:51;11.88;;;5.30;;
71104;SDS011;58760;48.716;8.962;2023-02-07T00:29:19;10.05;;;5.63;;
71104;SDS011;58760;48.716;8.962;2023-02-07T00:31:45;10.98;;;5.55;;
71104;SDS011;58760;48.716;8.962;2023-02-07T00:34:11;11.23;;;6.03;;
71104;SDS011;58760;48.716;8.962;2023-02-07T00:36:37;14.45;;;6.22;;
71104;SDS011;58760;48.716;8.962;2023-02-07T00:39:07;11.30;;;5.68;;
71104;SDS011;58760;48.716;8.962;2023-02-07T00:41:35;12.75;;;5.63;;
71104;SDS011;58760;48.716;8.962;2023-02-07T00:44:01;11.52;;;5.50;;
71104;SDS011;58760;48.716;8.962;2023-02-07T00:46:26;14.02;;;5.65;;
71104;SDS011;58760;48.716;8.962;2023-02-07T00:48:52;12.57;;;5.72;;
71104;SDS011;58760;48.716;8.962;2023-02-07T00:51:17;12.38;;;5.55;;
71104;SDS011;58760;48.716;8.962;2023-02-07T00:53:43;11.68;;;5.43;;
71104;SDS011;58760;48.716;8.962;2023-02-07T00:56:09;10.77;;;5.68;;
71104;SDS011;58760;48.716;8.962;2023-02-07T00:58:35;10.77;;;5.38;;
71104;SDS011;58760;48.716;8.962;2023-02-07T01:01:00;11.93;;;5.35;;
71104;SDS011;58760;48.716;8.962;2023-02-07T01:03:26;12.18;;;5.63;;
71104;SDS011;58760;48.716;8.962;2023-02-07T01:05:51;14.02;;;5.72;;
71104;SDS011;58760;48.716;8.962;2023-02-07T01:08:17;12.88;;;5.57;;
71104;SDS011;58760;48.716;8.962;2023-02-07T01:10:43;14.50;;;5.68;;
71104;SDS011;58760;48.716;8.962;2023-02-07T01:13:10;12.98;;;5.93;;
71104;SDS011;58760;48.716;8.962;2023-02-07T01:15:37;13.20;;;5.72;;
71104;SDS011;58760;48.716;8.962;2023-02-07T01:18:04;11.48;;;6.30;;
71104;SDS011;58760;48.716;8.962;2023-02-07T01:20:30;13.10;;;6.18;;
71104;SDS011;58760;48.716;8.962;2023-02-07T01:22:56;13.57;;;5.85;;
71104;SDS011;58760;48.716;8.962;2023-02-07T01:25:21;12.23;;;5.63;;
71104;SDS011;58760;48.716;8.962;2023-02-07T01:27:47;13.32;;;6.10;;
71104;SDS011;58760;48.716;8.962;2023-02-07T01:30:12;12.30;;;6.15;;
71104;SDS011;58760;48.716;8.962;2023-02-07T01:32:38;14.05;;;6.45;;
71104;SDS011;58760;48.716;8.962;2023-02-07T01:35:03;13.27;;;6.28;;
71104;SDS011;58760;48.716;8.962;2023-02-07T01:37:29;13.30;;;6.32;;
71104;SDS011;58760;48.716;8.962;2023-02-07T01:39:54;11.48;;;5.78;;
71104;SDS011;58760;48.716;8.962;2023-02-07T01:42:20;11.85;;;5.57;;
71104;SDS011;58760;48.716;8.962;2023-02-07T01:45:22;14.30;;;5.90;;
71104;SDS011;58760;48.716;8.962;2023-02-07T01:47:46;16.02;;;6.10;;
71104;SDS011;58760;48.716;8.962;2023-02-07T01:50:11;12.70;;;6.03;;
71104;SDS011;58760;48.716;8.962;2023-02-07T01:52:38;11.95;;;6.05;;
71104;SDS011;58760;48.716;8.962;2023-02-07T01:55:10;16.67;;;6.57;;
71104;SDS011;58760;48.716;8.962;2023-02-07T01:57:39;13.63;;;6.43;;
71104;SDS011;58760;48.716;8.962;2023-02-07T02:00:05;13.75;;;6.88;;
71104;SDS011;58760;48.716;8.962;2023-02-07T02:02:32;13.45;;;6.50;;
71104;SDS011;58760;48.716;8.962;2023-02-07T02:05:01;13.35;;;6.20;;
71104;SDS011;58760;48.716;8.962;2023-02-07T02:07:28;14.07;;;6.55;;
71104;SDS011;58760;48.716;8.962;2023-02-07T02:09:56;16.25;;;7.68;;
71104;SDS011;58760;48.716;8.962;2023-02-07T02:15:08;13.90;;;7.20;;
71104;SDS011;58760;48.716;8.962;2023-02-07T02:17:52;17.50;;;8.15;;
71104;SDS011;58760;48.716;8.962;2023-02-07T02:25:48;14.35;;;7.18;;
71104;SDS011;58760;48.716;8.962;2023-02-07T02:33:56;14.15;;;6.97;;
71104;SDS011;58760;48.716;8.962;2023-02-07T02:36:32;14.63;;;7.35;;
71104;SDS011;58760;48.716;8.962;2023-02-07T02:44:10;15.07;;;7.07;;
71104;SDS011;58760;48.716;8.962;2023-02-07T02:46:39;14.48;;;8.10;;
71104;SDS011;58760;48.716;8.962;2023-02-07T02:49:07;15.65;;;7.97;;
71104;SDS011;58760;48.716;8.962;2023-02-07T02:51:35;16.40;;;7.72;;
71104;SDS011;58760;48.716;8.962;2023-02-07T02:54:01;15.70;;;7.80;;
71104;SDS011;58760;48.716;8.962;2023-02-07T03:02:00;14.95;;;8.00;;
71104;SDS011;58760;48.716;8.962;2023-02-07T03:10:36;18.63;;;8.27;;
71104;SDS011;58760;48.716;8.962;2023-02-07T03:22:05;15.40;;;8.30;;
71104;SDS011;58760;48.716;8.962;2023-02-07T03:24:47;13.85;;;7.57;;
71104;SDS011;58760;48.716;8.962;2023-02-07T03:27:17;16.27;;;8.50;;
71104;SDS011;58760;48.716;8.962;2023-02-07T03:29:46;17.27;;;8.98;;
71104;SDS011;58760;48.716;8.962;2023-02-07T03:32:15;15.82;;;9.10;;
71104;SDS011;58760;48.716;8.962;2023-02-07T03:37:25;16.52;;;8.85;;
71104;SDS011;58760;48.716;8.962;2023-02-07T03:39:56;15.00;;;8.82;;
71104;SDS011;58760;48.716;8.962;2023-02-07T03:42:27;19.77;;;10.23;;
71104;SDS011;58760;48.716;8.962;2023-02-07T03:44:59;16.15;;;8.77;;
71104;SDS011;58760;48.716;8.962;2023-02-07T03:47:26;16.52;;;8.70;;
71104;SDS011;58760;48.716;8.962;2023-02-07T03:49:52;14.27;;;8.32;;
71104;SDS011;58760;48.716;8.962;2023-02-07T03:52:17;18.30;;;9.00;;
71104;SDS011;58760;48.716;8.962;2023-02-07T03:54:43;16.25;;;8.77;;
71104;SDS011;58760;48.716;8.962;2023-02-07T03:57:08;17.23;;;8.95;;
71104;SDS011;58760;48.716;8.962;2023-02-07T03:59:34;21.83;;;9.15;;
71104;SDS011;58760;48.716;8.962;2023-02-07T04:02:00;15.90;;;8.57;;
71104;SDS011;58760;48.716;8.962;2023-02-07T04:04:26;18.42;;;9.15;;
71104;SDS011;58760;48.716;8.962;2023-02-07T04:06:52;16.30;;;9.32;;
71104;SDS011;58760;48.716;8.962;2023-02-07T04:09:17;18.00;;;8.57;;
71104;SDS011;58760;48.716;8.962;2023-02-07T04:11:42;16.27;;;8.65;;
71104;SDS011;58760;48.716;8.962;2023-02-07T04:14:08;17.75;;;8.70;;
71104;SDS011;58760;48.716;8.962;2023-02-07T04:16:33;19.65;;;9.30;;
71104;SDS011;58760;48.716;8.962;2023-02-07T04:18:58;18.60;;;9.85;;
71104;SDS011;58760;48.716;8.962;2023-02-07T04:21:24;15.38;;;9.25;;
71104;SDS011;58760;48.716;8.962;2023-02-07T04:23:49;19.50;;;10.00;;
71104;SDS011;58760;48.716;8.962;2023-02-07T04:26:14;17.88;;;9.52;;
71104;SDS011;58760;48.716;8.962;2023-02-07T04:28:40;19.77;;;10.30;;
71104;SDS011;58760;48.716;8.962;2023-02-07T04:31:06;18.27;;;9.27;;
71104;SDS011;58760;48.716;8.962;2023-02-07T04:33:31;20.25;;;10.38;;
71104;SDS011;58760;48.716;8.962;2023-02-07T04:35:58;20.58;;;11.20;;
71104;SDS011;58760;48.716;8.962;2023-02-07T04:38:25;18.98;;;10.57;;
71104;SDS011;58760;48.716;8.962;2023-02-07T04:40:51;19.90;;;11.50;;
71104;SDS011;58760;48.716;8.962;2023-02-07T04:43:17;18.30;;;9.98;;
71104;SDS011;58760;48.716;8.962;2023-02-07T04:45:44;17.98;;;9.25;;
71104;SDS011;58760;48.716;8.962;2023-02-07T04:48:10;19.08;;;10.18;;
71104;SDS011;58760;48.716;8.962;2023-02-07T04:50:36;16.30;;;10.13;;
71104;SDS011;58760;48.716;8.962;2023-02-07T04:53:01;16.85;;;9.60;;
71104;SDS011;58760;48.716;8.962;2023-02-07T04:55:26;17.52;;;9.90;;
71104;SDS011;58760;48.716;8.962;2023-02-07T04:57:52;18.42;;;9.75;;
71104;SDS011;58760;48.716;8.962;2023-02-07T05:00:17;17.48;;;9.88;;
71104;SDS011;58760;48.716;8.962;2023-02-07T05:02:43;17.70;;;8.32;;
71104;SDS011;58760;48.716;8.962;2023-02-07T05:05:08;16.60;;;8.77;;
71104;SDS011;58760;48.716;8.962;2023-02-07T05:07:34;18.75;;;8.38;;
71104;SDS011;58760;48.716;8.962;2023-02-07T05:09:59;19.42;;;9.90;;
71104;SDS011;58760;48.716;8.962;2023-02-07T05:12:24;17.27;;;10.55;;
71104;SDS011;58760;48.716;8.962;2023-02-07T05:14:50;18.75;;;9.32;;
71104;SDS011;58760;48.716;8.962;2023-02-07T05:17:15;16.48;;;9.27;;
71104;SDS011;58760;48.716;8.962;2023-02-07T05:19:40;17.25;;;8.90;;
71104;SDS011;58760;48.716;8.962;2023-02-07T05:22:06;15.82;;;8.95;;
71104;SDS011;58760;48.716;8.962;2023-02-07T05:24:31;17.58;;;9.20;;
71104;SDS011;58760;48.716;8.962;2023-02-07T05:26:57;20.20;;;9.60;;
71104;SDS011;58760;48.716;8.962;2023-02-07T05:29:22;18.33;;;9.43;;
71104;SDS011;58760;48.716;8.962;2023-02-07T05:31:47;18.63;;;9.63;;
71104;SDS011;58760;48.716;8.962;2023-02-07T05:34:31;16.55;;;8.90;;
71104;SDS011;58760;48.716;8.962;2023-02-07T05:36:57;16.65;;;9.15;;
71104;SDS011;58760;48.716;8.962;2023-02-07T05:39:22;19.05;;;9.65;;
71104;SDS011;58760;48.716;8.962;2023-02-07T05:41:48;15.43;;;8.55;;
71104;SDS011;58760;48.716;8.962;2023-02-07T05:44:13;15.63;;;8.52;;
71104;SDS011;58760;48.716;8.962;2023-02-07T05:46:38;18.00;;;8.65;;
71104;SDS011;58760;48.716;8.962;2023-02-07T05:49:04;17.25;;;9.13;;
71104;SDS011;58760;48.716;8.962;2023-02-07T05:51:29;21.13;;;9.02;;
71104;SDS011;58760;48.716;8.962;2023-02-07T05:53:54;17.38;;;8.95;;
71104;SDS011;58760;48.716;8.962;2023-02-07T05:56:20;19.45;;;9.32;;
71104;SDS011;58760;48.716;8.962;2023-02-07T05:58:45;17.50;;;8.70;;
71104;SDS011;58760;48.716;8.962;2023-02-07T06:01:10;18.33;;;9.07;;
71104;SDS011;58760;48.716;8.962;2023-02-07T06:03:36;15.80;;;8.23;;
71104;SDS011;58760;48.716;8.962;2023-02-07T06:06:01;18.60;;;9.45;;
71104;SDS011;58760;48.716;8.962;2023-02-07T06:08:26;17.85;;;9.05;;
71104;SDS011;58760;48.716;8.962;2023-02-07T06:10:52;16.40;;;8.95;;
71104;SDS011;58760;48.716;8.962;2023-02-07T06:13:17;17.30;;;9.82;;
71104;SDS011;58760;48.716;8.962;2023-02-07T06:15:43;17.13;;;9.77;;
71104;SDS011;58760;48.716;8.962;2023-02-07T06:18:08;18.60;;;9.57;;
71104;SDS011;58760;48.716;8.962;2023-02-07T06:20:33;18.35;;;9.75;;
71104;SDS011;58760;48.716;8.962;2023-02-07T06:22:59;17.60;;;9.18;;
71104;SDS011;58760;48.716;8.962;2023-02-07T06:25:24;17.23;;;9.02;;
71104;SDS011;58760;48.716;8.962;2023-02-07T06:27:50;17.38;;;8.75;;
71104;SDS011;58760;48.716;8.962;2023-02-07T06:30:15;17.70;;;9.77;;
71104;SDS011;58760;48.716;8.962;2023-02-07T06:32:41;14.98;;;8.23;;
71104;SDS011;58760;48.716;8.962;2023-02-07T06:35:06;14.85;;;8.48;;
71104;SDS011;58760;48.716;8.962;2023-02-07T06:37:32;18.02;;;8.48;;
71104;SDS011;58760;48.716;8.962;2023-02-07T06:39:58;15.35;;;8.65;;
71104;SDS011;58760;48.716;8.962;2023-02-07T06:42:23;19.75;;;9.38;;
71104;SDS011;58760;48.716;8.962;2023-02-07T06:44:49;17.83;;;8.95;;
71104;SDS011;58760;48.716;8.962;2023-02-07T06:47:15;16.58;;;8.60;;
71104;SDS011;58760;48.716;8.962;2023-02-07T06:49:40;16.80;;;8.77;;
71104;SDS011;58760;48.716;8.962;2023-02-07T06:52:06;18.67;;;9.18;;
71104;SDS011;58760;48.716;8.962;2023-02-07T06:54:31;16.02;;;9.32;;
71104;SDS011;58760;48.716;8.962;2023-02-07T06:56:57;18.25;;;8.90;;
71104;SDS011;58760;48.716;8.962;2023-02-07T06:59:22;16.33;;;9.18;;
71104;SDS011;58760;48.716;8.962;2023-02-07T07:01:48;15.52;;;9.07;;
71104;SDS011;58760;48.716;8.962;2023-02-07T07:04:13;16.92;;;8.88;;
71104;SDS011;58760;48.716;8.962;2023-02-07T07:06:38;16.52;;;8.43;;
71104;SDS011;58760;48.716;8.962;2023-02-07T07:09:04;18.27;;;9.65;;
71104;SDS011;58760;48.716;8.962;2023-02-07T07:11:30;19.50;;;9.73;;
71104;SDS011;58760;48.716;8.962;2023-02-07T07:13:55;20.95;;;9.77;;
71104;SDS011;58760;48.716;8.962;2023-02-07T07:16:20;16.98;;;9.07;;
71104;SDS011;58760;48.716;8.962;2023-02-07T07:18:46;19.25;;;10.82;;
71104;SDS011;58760;48.716;8.962;2023-02-07T07:21:11;17.92;;;9.35;;
71104;SDS011;58760;48.716;8.962;2023-02-07T07:23:37;17.83;;;9.85;;
71104;SDS011;58760;48.716;8.962;2023-02-07T07:26:02;20.73;;;10.02;;
71104;SDS011;58760;48.716;8.962;2023-02-07T07:28:28;17.35;;;9.55;;
71104;SDS011;58760;48.716;8.962;2023-02-07T07:30:53;18.00;;;8.55;;
71104;SDS011;58760;48.716;8.962;2023-02-07T07:33:19;16.65;;;7.93;;
71104;SDS011;58760;48.716;8.962;2023-02-07T07:35:44;20.73;;;10.32;;
71104;SDS011;58760;48.716;8.962;2023-02-07T07:38:09;16.98;;;8.50;;
71104;SDS011;58760;48.716;8.962;2023-02-07T07:40:35;17.23;;;8.45;;
71104;SDS011;58760;48.716;8.962;2023-02-07T07:43:01;15.68;;;8.82;;
71104;SDS011;58760;48.716;8.962;2023-02-07T07:45:26;17.92;;;8.80;;
71104;SDS011;58760;48.716;8.962;2023-02-07T07:47:51;18.13;;;9.30;;
71104;SDS011;58760;48.716;8.962;2023-02-07T07:50:17;19.92;;;9.43;;
71104;SDS011;58760;48.716;8.962;2023-02-07T07:52:42;18.40;;;9.27;;
71104;SDS011;58760;48.716;8.962;2023-02-07T07:55:08;19.63;;;8.90;;
71104;SDS011;58760;48.716;8.962;2023-02-07T07:57:33;18.00;;;8.88;;
71104;SDS011;58760;48.716;8.962;2023-02-07T08:00:00;19.05;;;9.10;;
71104;SDS011;58760;48.716;8.962;2023-02-07T08:02:26;18.60;;;8.35;;
71104;SDS011;58760;48.716;8.962;2023-02-07T08:04:52;17.48;;;9.18;;
71104;SDS011;58760;48.716;8.962;2023-02-07T08:07:17;16.98;;;8.80;;
71104;SDS011;58760;48.716;8.962;2023-02-07T08:09:42;15.45;;;7.88;;
71104;SDS011;58760;48.716;8.962;2023-02-07T08:12:08;14.32;;;7.93;;
71104;SDS011;58760;48.716;8.962;2023-02-07T08:14:33;14.68;;;7.47;;
71104;SDS011;58760;48.716;8.962;2023-02-07T08:16:59;18.10;;;8.40;;
71104;SDS011;58760;48.716;8.962;2023-02-07T08:19:24;17.02;;;8.35;;
71104;SDS011;58760;48.716;8.962;2023-02-07T08:21:49;16.63;;;8.20;;
71104;SDS011;58760;48.716;8.962;2023-02-07T08:24:15;14.98;;;8.07;;
71104;SDS011;58760;48.716;8.962;2023-02-07T08:26:40;13.77;;;7.75;;
71104;SDS011;58760;48.716;8.962;2023-02-07T08:29:05;14.65;;;7.18;;
71104;SDS011;58760;48.716;8.962;2023-02-07T08:31:31;15.63;;;7.63;;
71104;SDS011;58760;48.716;8.962;2023-02-07T08:33:56;14.40;;;7.63;;
71104;SDS011;58760;48.716;8.962;2023-02-07T08:36:22;12.68;;;7.20;;
71104;SDS011;58760;48.716;8.962;2023-02-07T08:38:47;16.63;;;7.47;;
71104;SDS011;58760;48.716;8.962;2023-02-07T08:41:12;16.88;;;8.02;;
71104;SDS011;58760;48.716;8.962;2023-02-07T08:43:38;14.88;;;7.63;;
71104;SDS011;58760;48.716;8.962;2023-02-07T08:46:04;16.25;;;8.05;;
71104;SDS011;58760;48.716;8.962;2023-02-07T08:48:30;13.77;;;7.78;;
71104;SDS011;58760;48.716;8.962;2023-02-07T08:50:55;15.95;;;8.73;;
71104;SDS011;58760;48.716;8.962;2023-02-07T08:53:20;15.90;;;8.82;;
71104;SDS011;58760;48.716;8.962;2023-02-07T08:55:46;20.13;;;9.88;;
71104;SDS011;58760;48.716;8.962;2023-02-07T08:58:12;18.67;;;9.82;;
71104;SDS011;58760;48.716;8.962;2023-02-07T09:00:37;17.85;;;9.93;;
71104;SDS011;58760;48.716;8.962;2023-02-07T09:03:03;19.95;;;10.70;;
71104;SDS011;58760;48.716;8.962;2023-02-07T09:05:29;20.45;;;9.60;;
71104;SDS011;58760;48.716;8.962;2023-02-07T09:07:59;17.45;;;9.75;;
71104;SDS011;58760;48.716;8.962;2023-02-07T09:10:25;19.33;;;9.57;;
71104;SDS011;58760;48.716;8.962;2023-02-07T09:12:50;19.85;;;9.82;;
71104;SDS011;58760;48.716;8.962;2023-02-07T09:15:15;17.80;;;9.20;;
71104;SDS011;58760;48.716;8.962;2023-02-07T09:17:41;19.50;;;9.18;;
71104;SDS011;58760;48.716;8.962;2023-02-07T09:20:07;17.02;;;9.13;;
71104;SDS011;58760;48.716;8.962;2023-02-07T09:22:33;17.30;;;8.32;;
71104;SDS011;58760;48.716;8.962;2023-02-07T09:25:19;18.60;;;9.50;;
71104;SDS011;58760;48.716;8.962;2023-02-07T09:27:44;16.23;;;8.43;;
71104;SDS011;58760;48.716;8.962;2023-02-07T09:30:09;19.17;;;8.27;;
71104;SDS011;58760;48.716;8.962;2023-02-07T09:32:35;16.88;;;8.23;;
71104;SDS011;58760;48.716;8.962;2023-02-07T09:35:00;19.30;;;8.98;;
71104;SDS011;58760;48.716;8.962;2023-02-07T09:37:26;17.20;;;8.35;;
71104;SDS011;58760;48.716;8.962;2023-02-07T09:39:51;15.80;;;8.63;;
71104;SDS011;58760;48.716;8.962;2023-02-07T09:42:21;15.40;;;8.18;;
71104;SDS011;58760;48.716;8.962;2023-02-07T09:47:26;14.48;;;7.45;;
71104;SDS011;58760;48.716;8.962;2023-02-07T09:49:53;15.25;;;7.65;;
71104;SDS011;58760;48.716;8.962;2023-02-07T09:52:23;13.68;;;7.68;;
71104;SDS011;58760;48.716;8.962;2023-02-07T09:54:55;14.48;;;7.65;;
71104;SDS011;58760;48.716;8.962;2023-02-07T09:57:26;14.45;;;7.47;;
71104;SDS011;58760;48.716;8.962;2023-02-07T10:00:03;11.65;;;6.70;;
71104;SDS011;58760;48.716;8.962;2023-02-07T10:05:21;17.10;;;7.22;;
71104;SDS011;58760;48.716;8.962;2023-02-07T10:08:00;14.60;;;7.53;;
71104;SDS011;58760;48.716;8.962;2023-02-07T10:10:38;20.27;;;8.35;;
71104;SDS011;58760;48.716;8.962;2023-02-07T10:18:27;12.73;;;6.82;;
71104;SDS011;58760;48.716;8.962;2023-02-07T10:26:53;12.48;;;6.80;;
71104;SDS011;58760;48.716;8.962;2023-02-07T10:29:30;13.82;;;7.82;;
71104;SDS011;58760;48.716;8.962;2023-02-07T10:32:20;13.48;;;7.47;;
71104;SDS011;58760;48.716;8.962;2023-02-07T10:34:48;13.27;;;7.03;;
71104;SDS011;58760;48.716;8.962;2023-02-07T10:37:21;14.90;;;7.13;;
71104;SDS011;58760;48.716;8.962;2023-02-07T10:39:59;13.57;;;6.78;;
71104;SDS011;58760;48.716;8.962;2023-02-07T10:42:27;19.02;;;8.20;;
71104;SDS011;58760;48.716;8.962;2023-02-07T10:44:54;14.60;;;7.30;;
71104;SDS011;58760;48.716;8.962;2023-02-07T10:47:19;15.25;;;7.30;;
71104;SDS011;58760;48.716;8.962;2023-02-07T10:49:46;15.40;;;6.97;;
71104;SDS011;58760;48.716;8.962;2023-02-07T10:52:20;14.68;;;7.25;;
71104;SDS011;58760;48.716;8.962;2023-02-07T10:57:21;14.43;;;6.88;;
71104;SDS011;58760;48.716;8.962;2023-02-07T10:59:46;15.15;;;7.05;;
71104;SDS011;58760;48.716;8.962;2023-02-07T11:07:54;14.75;;;6.93;;
71104;SDS011;58760;48.716;8.962;2023-02-07T11:10:22;17.20;;;7.43;;
71104;SDS011;58760;48.716;8.962;2023-02-07T11:12:54;12.10;;;6.47;;
71104;SDS011;58760;48.716;8.962;2023-02-07T11:15:23;13.23;;;7.35;;
71104;SDS011;58760;48.716;8.962;2023-02-07T11:17:55;15.25;;;6.80;;
71104;SDS011;58760;48.716;8.962;2023-02-07T11:20:24;14.55;;;7.70;;
71104;SDS011;58760;48.716;8.962;2023-02-07T11:22:55;14.10;;;6.47;;
71104;SDS011;58760;48.716;8.962;2023-02-07T11:25:28;13.35;;;6.03;;
71104;SDS011;58760;48.716;8.962;2023-02-07T11:30:21;11.68;;;6.15;;
71104;SDS011;58760;48.716;8.962;2023-02-07T11:32:53;10.63;;;6.32;;
71104;SDS011;58760;48.716;8.962;2023-02-07T11:35:21;14.02;;;6.15;;
71104;SDS011;58760;48.716;8.962;2023-02-07T11:37:48;15.35;;;6.40;;
71104;SDS011;58760;48.716;8.962;2023-02-07T11:40:36;10.40;;;5.82;;
71104;SDS011;58760;48.716;8.962;2023-02-07T11:43:10;11.68;;;5.93;;
71104;SDS011;58760;48.716;8.962;2023-02-07T11:45:38;10.88;;;6.32;;
71104;SDS011;58760;48.716;8.962;2023-02-07T11:48:13;10.13;;;5.43;;
71104;SDS011;58760;48.716;8.962;2023-02-07T11:50:42;11.32;;;6.07;;
71104;SDS011;58760;48.716;8.962;2023-02-07T11:56:21;11.43;;;6.03;;
71104;SDS011;58760;48.716;8.962;2023-02-07T11:58:49;12.57;;;6.05;;
71104;SDS011;58760;48.716;8.962;2023-02-07T12:01:18;11.60;;;5.97;;
71104;SDS011;58760;48.716;8.962;2023-02-07T12:06:17;9.32;;;4.80;;
71104;SDS011;58760;48.716;8.962;2023-02-07T12:08:45;13.82;;;5.03;;
71104;SDS011;58760;48.716;8.962;2023-02-07T12:14:05;10.77;;;4.40;;
71104;SDS011;58760;48.716;8.962;2023-02-07T12:16:43;10.38;;;4.32;;
71104;SDS011;58760;48.716;8.962;2023-02-07T12:19:16;7.72;;;4.40;;
71104;SDS011;58760;48.716;8.962;2023-02-07T12:24:41;11.00;;;3.95;;
71104;SDS011;58760;48.716;8.962;2023-02-07T12:27:14;8.90;;;4.00;;
71104;SDS011;58760;48.716;8.962;2023-02-07T12:29:48;7.40;;;3.30;;
71104;SDS011;58760;48.716;8.962;2023-02-07T12:35:12;5.82;;;3.05;;
71104;SDS011;58760;48.716;8.962;2023-02-07T12:43:25;6.57;;;2.83;;
71104;SDS011;58760;48.716;8.962;2023-02-07T12:56:52;7.68;;;3.25;;
71104;SDS011;58760;48.716;8.962;2023-02-07T13:07:52;9.70;;;3.50;;
71104;SDS011;58760;48.716;8.962;2023-02-07T13:18:35;9.98;;;2.97;;
71104;SDS011;58760;48.716;8.962;2023-02-07T13:23:59;7.32;;;3.65;;
71104;SDS011;58760;48.716;8.962;2023-02-07T13:26:27;9.32;;;3.80;;
71104;SDS011;58760;48.716;8.962;2023-02-07T13:34:14;7.32;;;3.30;;
71104;SDS011;58760;48.716;8.962;2023-02-07T13:36:43;7.50;;;3.58;;
71104;SDS011;58760;48.716;8.962;2023-02-07T13:39:20;7.95;;;3.53;;
71104;SDS011;58760;48.716;8.962;2023-02-07T13:45:19;7.03;;;3.20;;
71104;SDS011;58760;48.716;8.962;2023-02-07T13:48:24;7.60;;;3.13;;
71104;SDS011;58760;48.716;8.962;2023-02-07T13:50:53;7.38;;;3.30;;
71104;SDS011;58760;48.716;8.962;2023-02-07T13:56:12;8.45;;;3.60;;
71104;SDS011;58760;48.716;8.962;2023-02-07T13:58:58;9.48;;;3.42;;
71104;SDS011;58760;48.716;8.962;2023-02-07T14:01:49;6.57;;;3.35;;
71104;SDS011;58760;48.716;8.962;2023-02-07T14:04:17;7.88;;;3.17;;
71104;SDS011;58760;48.716;8.962;2023-02-07T14:11:57;7.20;;;3.97;;
71104;SDS011;58760;48.716;8.962;2023-02-07T14:14:33;9.20;;;4.30;;
71104;SDS011;58760;48.716;8.962;2023-02-07T14:27:38;6.32;;;3.10;;
71104;SDS011;58760;48.716;8.962;2023-02-07T14:35:35;7.78;;;3.33;;
71104;SDS011;58760;48.716;8.962;2023-02-07T14:45:36;5.55;;;2.92;;
71104;SDS011;58760;48.716;8.962;2023-02-07T14:48:03;7.25;;;2.60;;
71104;SDS011;58760;48.716;8.962;2023-02-07T14:50:30;6.60;;;2.95;;
71104;SDS011;58760;48.716;8.962;2023-02-07T14:52:57;5.65;;;2.72;;
71104;SDS011;58760;48.716;8.962;2023-02-07T14:55:33;6.03;;;2.53;;
71104;SDS011;58760;48.716;8.962;2023-02-07T14:58:24;5.07;;;2.35;;
71104;SDS011;58760;48.716;8.962;2023-02-07T15:00:55;6.57;;;2.40;;
71104;SDS011;58760;48.716;8.962;2023-02-07T15:03:23;5.80;;;2.40;;
71104;SDS011;58760;48.716;8.962;2023-02-07T15:05:57;7.68;;;2.60;;
71104;SDS011;58760;48.716;8.962;2023-02-07T15:08:24;5.70;;;2.35;;
71104;SDS011;58760;48.716;8.962;2023-02-07T15:15:57;7.07;;;2.30;;
71104;SDS011;58760;48.716;8.962;2023-02-07T15:18:27;7.25;;;2.42;;
71104;SDS011;58760;48.716;8.962;2023-02-07T15:20:57;5.57;;;1.85;;
71104;SDS011;58760;48.716;8.962;2023-02-07T15:23:24;5.38;;;1.88;;
71104;SDS011;58760;48.716;8.962;2023-02-07T15:25:52;4.95;;;2.20;;
71104;SDS011;58760;48.716;8.962;2023-02-07T15:28:25;4.72;;;1.98;;
71104;SDS011;58760;48.716;8.962;2023-02-07T15:30:59;5.22;;;1.98;;
71104;SDS011;58760;48.716;8.962;2023-02-07T15:33:39;5.75;;;2.15;;
71104;SDS011;58760;48.716;8.962;2023-02-07T15:36:25;4.90;;;1.95;;
71104;SDS011;58760;48.716;8.962;2023-02-07T15:39:02;6.32;;;2.20;;
71104;SDS011;58760;48.716;8.962;2023-02-07T15:41:29;11.35;;;2.55;;
71104;SDS011;58760;48.716;8.962;2023-02-07T15:46:26;5.80;;;2.45;;
71104;SDS011;58760;48.716;8.962;2023-02-07T15:49:22;6.15;;;2.10;;
71104;SDS011;58760;48.716;8.962;2023-02-07T15:51:49;6.00;;;2.28;;
71104;SDS011;58760;48.716;8.962;2023-02-07T15:54:15;5.65;;;2.20;;
71104;SDS011;58760;48.716;8.962;2023-02-07T15:56:43;5.78;;;2.20;;
71104;SDS011;58760;48.716;8.962;2023-02-07T15:59:15;6.25;;;2.25;;
71104;SDS011;58760;48.716;8.962;2023-02-07T16:01:48;4.65;;;2.10;;
71104;SDS011;58760;48.716;8.962;2023-02-07T16:09:38;7.72;;;2.60;;
71104;SDS011;58760;48.716;8.962;2023-02-07T16:14:56;7.45;;;2.67;;
71104;SDS011;58760;48.716;8.962;2023-02-07T16:17:24;9.65;;;2.67;;
71104;SDS011;58760;48.716;8.962;2023-02-07T16:20:00;6.40;;;2.78;;
71104;SDS011;58760;48.716;8.962;2023-02-07T16:22:26;10.18;;;3.60;;
71104;SDS011;58760;48.716;8.962;2023-02-07T16:24:54;8.95;;;3.15;;
71104;SDS011;58760;48.716;8.962;2023-02-07T16:27:23;5.82;;;2.80;;
71104;SDS011;58760;48.716;8.962;2023-02-07T16:29:54;6.03;;;2.90;;
71104;SDS011;58760;48.716;8.962;2023-02-07T16:32:20;7.53;;;3.35;;
71104;SDS011;58760;48.716;8.962;2023-02-07T16:34:45;9.60;;;3.83;;
71104;SDS011;58760;48.716;8.962;2023-02-07T16:37:11;8.70;;;4.07;;
71104;SDS011;58760;48.716;8.962;2023-02-07T16:39:38;10.50;;;3.78;;
71104;SDS011;58760;48.716;8.962;2023-02-07T16:42:05;8.90;;;4.10;;
71104;SDS011;58760;48.716;8.962;2023-02-07T16:44:34;10.48;;;4.70;;
71104;SDS011;58760;48.716;8.962;2023-02-07T16:47:00;14.68;;;4.68;;
71104;SDS011;58760;48.716;8.962;2023-02-07T16:49:26;9.38;;;4.55;;
71104;SDS011;58760;48.716;8.962;2023-02-07T16:51:53;8.63;;;4.35;;
71104;SDS011;58760;48.716;8.962;2023-02-07T16:54:19;13.27;;;4.65;;
71104;SDS011;58760;48.716;8.962;2023-02-07T16:56:45;13.82;;;5.50;;
71104;SDS011;58760;48.716;8.962;2023-02-07T16:59:13;15.50;;;6.35;;
71104;SDS011;58760;48.716;8.962;2023-02-07T17:01:42;14.57;;;5.53;;
71104;SDS011;58760;48.716;8.962;2023-02-07T17:04:08;10.25;;;4.13;;
71104;SDS011;58760;48.716;8.962;2023-02-07T17:06:35;11.30;;;4.00;;
71104;SDS011;58760;48.716;8.962;2023-02-07T17:09:00;6.78;;;3.28;;
71104;SDS011;58760;48.716;8.962;2023-02-07T17:11:25;6.15;;;2.67;;
71104;SDS011;58760;48.716;8.962;2023-02-07T17:13:54;7.47;;;3.30;;
71104;SDS011;58760;48.716;8.962;2023-02-07T17:16:21;8.00;;;3.40;;
71104;SDS011;58760;48.716;8.962;2023-02-07T17:18:47;9.75;;;3.85;;
71104;SDS011;58760;48.716;8.962;2023-02-07T17:21:12;7.50;;;3.13;;
71104;SDS011;58760;48.716;8.962;2023-02-07T17:23:40;11.50;;;4.40;;
71104;SDS011;58760;48.716;8.962;2023-02-07T17:28:42;8.35;;;3.65;;
71104;SDS011;58760;48.716;8.962;2023-02-07T17:31:09;8.15;;;3.97;;
71104;SDS011;58760;48.716;8.962;2023-02-07T17:33:35;9.40;;;3.70;;
71104;SDS011;58760;48.716;8.962;2023-02-07T17:36:01;8.43;;;3.90;;
71104;SDS011;58760;48.716;8.962;2023-02-07T17:38:26;9.68;;;3.40;;